Time;durP1;ratioP1;P1;durP2;ratioP2;P2;SDS_P1;SDS_P2;PMS_P1;PMS_P2;Temp;Humidity;BMP_temperature;BMP_pressure;BME280_temperature;BME280_humidity;BME280_pressure;Samples;Min_cycle;Max_cycle;Signal;HPM_P1;HPM_P2
2022/09/12 00:01:24;;;;;;;2.35;2.05;;;11.90;99.90;;;;;;6206727;23;19993;-80
2022/09/12 00:03:57;;;;;;;2.38;2.17;;;11.90;99.90;;;;;;6180318;23;20013;-79
2022/09/12 00:06:41;;;;;;;2.13;1.95;;;11.90;99.90;;;;;;6207557;23;20005;-80
2022/09/12 00:09:10;;;;;;;2.30;2.10;;;11.80;99.90;;;;;;6205480;23;20111;-80
2022/09/12 00:11:37;;;;;;;2.40;1.98;;;11.80;99.90;;;;;;6205315;23;20001;-80
2022/09/12 00:14:04;;;;;;;2.78;2.53;;;11.80;99.90;;;;;;6206013;23;19997;-80
2022/09/12 00:16:32;;;;;;;2.28;1.80;;;11.80;99.90;;;;;;6205181;23;19997;-80
2022/09/12 00:18:58;;;;;;;1.92;1.80;;;11.80;99.90;;;;;;6206050;23;20016;-80
2022/09/12 00:21:24;;;;;;;2.42;1.98;;;11.80;99.90;;;;;;6184936;23;20005;-79
2022/09/12 00:23:50;;;;;;;2.50;2.30;;;11.80;99.90;;;;;;6208252;23;19993;-80
2022/09/12 00:26:17;;;;;;;2.25;2.05;;;11.80;99.90;;;;;;6181042;23;20007;-80
2022/09/12 00:28:44;;;;;;;2.10;1.95;;;11.70;99.90;;;;;;6209676;23;20005;-80
2022/09/12 00:31:13;;;;;;;2.00;1.77;;;11.70;99.90;;;;;;6209572;23;20041;-80
2022/09/12 00:33:39;;;;;;;2.08;1.77;;;11.70;99.90;;;;;;6207664;23;20005;-80
2022/09/12 00:36:13;;;;;;;2.00;1.85;;;11.70;99.90;;;;;;6206275;23;20005;-80
2022/09/12 00:38:40;;;;;;;2.17;1.98;;;11.60;99.90;;;;;;6205990;23;20035;-80
2022/09/12 00:41:12;;;;;;;2.10;1.95;;;11.60;99.90;;;;;;6206651;23;20371;-80
2022/09/12 00:43:48;;;;;;;2.70;2.50;;;11.60;99.90;;;;;;6205211;23;20009;-80
2022/09/12 00:46:45;;;;;;;2.15;2.00;;;11.60;99.90;;;;;;6205728;23;19997;-80
2022/09/12 00:49:23;;;;;;;2.45;2.25;;;11.60;99.90;;;;;;6206266;23;20009;-80
2022/09/12 00:51:54;;;;;;;2.20;2.00;;;11.50;99.90;;;;;;6206643;23;20089;-80
2022/09/12 00:54:26;;;;;;;2.20;2.00;;;11.50;99.90;;;;;;6205907;23;20005;-80
2022/09/12 00:56:55;;;;;;;2.40;1.85;;;11.50;99.90;;;;;;6204965;23;20081;-79
2022/09/12 00:59:28;;;;;;;2.42;1.90;;;11.50;99.90;;;;;;6205641;23;20009;-80
2022/09/12 01:01:54;;;;;;;2.83;2.15;;;11.50;99.90;;;;;;6207204;23;20001;-80
2022/09/12 01:04:24;;;;;;;1.80;1.70;;;11.40;99.90;;;;;;6205447;23;19998;-79
2022/09/12 01:06:51;;;;;;;2.08;1.90;;;11.40;99.90;;;;;;6205203;23;20001;-80
2022/09/12 01:09:20;;;;;;;2.22;1.70;;;11.40;99.90;;;;;;6206142;23;20020;-80
2022/09/12 01:11:47;;;;;;;1.85;1.75;;;11.40;99.90;;;;;;6205322;23;20009;-80
2022/09/12 01:14:15;;;;;;;2.03;1.52;;;11.40;99.90;;;;;;6205842;23;20013;-80
2022/09/12 01:16:41;;;;;;;2.92;1.52;;;11.40;99.90;;;;;;6204790;23;20008;-80
2022/09/12 01:19:30;;;;;;;2.15;2.05;;;11.40;99.90;;;;;;6205326;23;20187;-80
2022/09/12 01:22:15;;;;;;;2.03;1.90;;;11.40;99.90;;;;;;6179346;23;20007;-80
2022/09/12 01:24:59;;;;;;;1.92;1.83;;;11.40;99.90;;;;;;6208746;23;20032;-79
2022/09/12 01:27:25;;;;;;;3.35;1.95;;;11.40;99.90;;;;;;6207090;23;20053;-80
2022/09/12 01:29:57;;;;;;;2.20;2.00;;;11.40;99.90;;;;;;6206626;23;19989;-80
2022/09/12 01:32:57;;;;;;;1.77;1.67;;;11.30;99.90;;;;;;6181024;23;20001;-80
2022/09/12 01:35:45;;;;;;;3.03;2.08;;;11.30;99.90;;;;;;6181077;23;20005;-80
2022/09/12 01:38:11;;;;;;;2.20;1.30;;;11.30;99.90;;;;;;6181251;23;20197;-80
2022/09/12 01:40:52;;;;;;;1.88;1.77;;;11.30;99.90;;;;;;6207693;23;20012;-80
2022/09/12 01:43:27;;;;;;;2.00;1.90;;;11.30;99.90;;;;;;6209517;23;20072;-80
2022/09/12 01:46:05;;;;;;;2.00;1.88;;;11.30;99.90;;;;;;6185380;23;19989;-80
2022/09/12 01:48:55;;;;;;;1.73;1.63;;;11.30;99.90;;;;;;6205499;23;20129;-80
2022/09/12 01:51:25;;;;;;;1.65;1.55;;;11.30;99.90;;;;;;6230368;23;20001;-81
2022/09/12 01:54:04;;;;;;;1.50;1.40;;;11.20;99.90;;;;;;6228545;23;20015;-82
2022/09/12 01:56:33;;;;;;;2.25;2.05;;;11.30;99.90;;;;;;6202695;23;20055;-81
2022/09/12 01:59:27;;;;;;;2.30;2.10;;;11.20;99.90;;;;;;6206215;23;19997;-81
2022/09/12 02:02:00;;;;;;;2.15;2.00;;;11.20;99.90;;;;;;6227974;23;20039;-82
2022/09/12 02:04:30;;;;;;;3.42;1.90;;;11.20;99.90;;;;;;6197149;23;20024;-82
2022/09/12 02:07:15;;;;;;;1.92;1.80;;;11.20;99.90;;;;;;6195988;23;20131;-82
2022/09/12 02:10:13;;;;;;;1.77;1.65;;;11.30;99.90;;;;;;6196425;23;20040;-82
2022/09/12 02:13:04;;;;;;;1.65;1.55;;;11.20;99.90;;;;;;6199156;23;20005;-81
2022/09/12 02:15:37;;;;;;;1.83;1.70;;;11.20;99.90;;;;;;6186839;23;20016;-81
2022/09/12 02:18:04;;;;;;;;;;;11.20;99.90;;;;;;6200140;23;20005;-81
2022/09/12 02:20:35;;;;;;;1.70;1.60;;;11.10;99.90;;;;;;6200187;23;19915;-80
2022/09/12 02:23:04;;;;;;;2.00;1.83;;;11.10;99.90;;;;;;6202646;23;20001;-80
2022/09/12 02:25:31;;;;;;;1.48;1.38;;;11.10;99.90;;;;;;6200540;23;20108;-82
2022/09/12 02:28:07;;;;;;;1.67;1.58;;;11.10;99.90;;;;;;6217486;23;20005;-81
2022/09/12 02:30:54;;;;;;;1.90;1.80;;;11.10;99.90;;;;;;6217963;23;20009;-81
2022/09/12 02:33:42;;;;;;;2.25;2.05;;;11.10;99.90;;;;;;6194104;23;20001;-81
2022/09/12 02:36:40;;;;;;;1.75;1.55;;;11.10;99.90;;;;;;6194504;23;20011;-81
2022/09/12 02:39:10;;;;;;;1.67;1.50;;;11.10;99.90;;;;;;6193936;23;20012;-80
2022/09/12 02:41:58;;;;;;;1.85;1.75;;;11.10;99.90;;;;;;6196516;23;20005;-80
2022/09/12 02:44:25;;;;;;;3.13;1.58;;;11.00;99.90;;;;;;6218082;23;20005;-80
2022/09/12 02:46:55;;;;;;;2.05;1.85;;;11.00;99.90;;;;;;6200718;23;20057;-82
2022/09/12 02:49:21;;;;;;;1.85;1.75;;;11.00;99.90;;;;;;6216628;23;20009;-83
2022/09/12 02:51:48;;;;;;;1.88;1.77;;;;;;;;;;6224322;23;20005;-82
2022/09/12 02:54:14;;;;;;;3.00;2.05;;;;;;;;;;6223372;23;20001;-81
2022/09/12 02:56:41;;;;;;;1.67;1.58;;;;;;;;;;6225780;23;20007;-80
2022/09/12 02:59:09;;;;;;;2.00;1.88;;;;;;;;;;6224161;23;19997;-83
2022/09/12 03:01:44;;;;;;;1.70;1.60;;;;;;;;;;6223559;23;19996;-82
2022/09/12 03:04:10;;;;;;;1.80;1.70;;;;;;;;;;6222927;23;20024;-82
2022/09/12 03:06:36;;;;;;;1.60;1.50;;;;;;;;;;6223979;23;20015;-81
2022/09/12 03:09:03;;;;;;;1.35;1.25;;;;;;;;;;6222796;23;20001;-82
2022/09/12 03:11:35;;;;;;;1.50;1.40;;;;;;;;;;6223367;23;20008;-82
2022/09/12 03:14:04;;;;;;;1.92;1.77;;;;;;;;;;6199553;23;20335;-81
2022/09/12 03:16:40;;;;;;;1.67;1.58;;;;;;;;;;6227086;23;20005;-81
2022/09/12 03:19:13;;;;;;;1.70;1.60;;;;;;;;;;6210607;23;20008;-81
2022/09/12 03:21:54;;;;;;;1.63;1.52;;;;;;;;;;6223709;23;20003;-81
2022/09/12 03:24:24;;;;;;;1.80;1.70;;;;;;;;;;6222938;23;19996;-81
2022/09/12 03:26:58;;;;;;;1.40;1.30;;;;;;;;;;6222618;23;20392;-81
2022/09/12 03:29:24;;;;;;;1.55;1.45;;;;;;;;;;6224807;23;20008;-82
2022/09/12 03:31:52;;;;;;;1.40;1.30;;;;;;;;;;6223740;23;20432;-81
2022/09/12 03:34:18;;;;;;;1.95;1.60;;;;;;;;;;6223168;23;20308;-82
2022/09/12 03:36:44;;;;;;;1.60;1.50;;;;;;;;;;6196439;23;20004;-82
2022/09/12 03:39:10;;;;;;;1.60;1.50;;;;;;;;;;6231911;23;20020;-81
2022/09/12 03:41:37;;;;;;;1.70;1.60;;;;;;;;;;6237221;23;20007;-79
2022/09/12 03:44:03;;;;;;;1.60;1.50;;;;;;;;;;6241963;22;20012;-79
2022/09/12 03:46:29;;;;;;;1.85;1.75;;;;;;;;;;6235190;23;20079;-80
2022/09/12 03:48:55;;;;;;;1.38;1.30;;;;;;;;;;6237127;23;20008;-80
2022/09/12 03:51:21;;;;;;;1.70;1.60;;;;;;;;;;6237094;23;20024;-81
2022/09/12 03:53:47;;;;;;;1.42;1.33;;;;;;;;;;6237959;23;19993;-81
2022/09/12 03:56:13;;;;;;;1.73;1.60;;;;;;;;;;6210937;23;20017;-82
2022/09/12 03:58:40;;;;;;;1.52;1.20;;;;;;;;;;6234822;23;19997;-81
2022/09/12 04:01:24;;;;;;;1.67;1.58;;;;;;;;;;6234432;23;20003;-82
2022/09/12 04:03:51;;;;;;;1.60;1.50;;;;;;;;;;6226747;23;20054;-83
2022/09/12 04:06:19;;;;;;;1.50;1.40;;;;;;;;;;6210231;23;20016;-81
2022/09/12 04:08:49;;;;;;;1.20;1.20;;;;;;;;;;6216697;23;19993;-79
2022/09/12 04:11:15;;;;;;;1.13;1.02;;;;;;;;;;6216680;22;19989;-80
2022/09/12 04:13:43;;;;;;;1.67;1.58;;;10.50;99.90;;;;;;6216982;23;20008;-81
2022/09/12 04:16:10;;;;;;;1.20;1.20;;;10.40;99.90;;;;;;6241640;22;20042;-79
2022/09/12 04:18:37;;;;;;;1.50;1.40;;;10.40;99.90;;;;;;6242776;22;19992;-81
2022/09/12 04:21:08;;;;;;;1.05;1.05;;;10.40;99.90;;;;;;6243080;22;19996;-81
2022/09/12 04:23:34;;;;;;;1.50;1.40;;;10.40;99.90;;;;;;6242720;22;20008;-80
2022/09/12 04:26:02;;;;;;;1.60;1.50;;;10.50;99.90;;;;;;6214781;23;20008;-82
2022/09/12 04:28:28;;;;;;;1.65;1.40;;;10.50;99.90;;;;;;6237915;23;20016;-82
2022/09/12 04:30:55;;;;;;;1.33;1.23;;;10.40;99.90;;;;;;6212710;23;20013;-83
2022/09/12 04:33:20;;;;;;;1.45;1.35;;;10.50;99.90;;;;;;6210692;23;20004;-83
2022/09/12 04:35:47;;;;;;;1.50;1.40;;;10.40;99.90;;;;;;6237778;23;20009;-82
2022/09/12 04:38:13;;;;;;;2.08;1.88;;;10.40;99.90;;;;;;6237004;23;20017;-82
2022/09/12 04:40:39;;;;;;;1.58;1.48;;;10.40;99.90;;;;;;6232822;23;20016;-82
2022/09/12 04:43:05;;;;;;;1.38;1.30;;;10.40;99.90;;;;;;6227684;23;20016;-83
2022/09/12 04:45:32;;;;;;;2.00;1.90;;;10.40;99.90;;;;;;6225049;23;20000;-83
2022/09/12 04:47:57;;;;;;;3.92;1.80;;;10.40;99.90;;;;;;6226887;23;20020;-84
2022/09/12 04:50:23;;;;;;;2.55;1.88;;;10.30;99.90;;;;;;6198850;23;20129;-83
2022/09/12 04:52:53;;;;;;;1.40;1.30;;;10.30;99.90;;;;;;6225522;23;20032;-83
2022/09/12 04:55:19;;;;;;;2.20;1.77;;;10.30;99.90;;;;;;6225515;23;20071;-83
2022/09/12 04:57:45;;;;;;;1.40;1.30;;;10.30;99.90;;;;;;6226255;23;20005;-83
2022/09/12 05:00:12;;;;;;;5.65;2.10;;;10.30;99.90;;;;;;6198802;23;19996;-83
2022/09/12 05:02:38;;;;;;;1.40;1.30;;;10.40;99.90;;;;;;6198894;23;20001;-84
2022/09/12 05:05:04;;;;;;;1.60;1.50;;;10.30;99.90;;;;;;6224687;23;20023;-83
2022/09/12 05:07:30;;;;;;;1.67;1.40;;;10.30;99.90;;;;;;6197810;23;20008;-82
2022/09/12 05:09:55;;;;;;;1.58;1.48;;;10.30;99.90;;;;;;6224992;23;20046;-83
2022/09/12 05:12:21;;;;;;;1.50;1.40;;;10.40;99.90;;;;;;6226047;23;20001;-82
2022/09/12 05:14:46;;;;;;;1.40;1.30;;;10.40;99.90;;;;;;6198628;23;20001;-82
2022/09/12 05:17:12;;;;;;;1.42;1.33;;;10.40;99.90;;;;;;6223967;23;20012;-82
2022/09/12 05:19:38;;;;;;;1.63;1.50;;;10.40;99.90;;;;;;6225630;23;20079;-83
2022/09/12 05:22:05;;;;;;;1.60;1.50;;;10.50;99.90;;;;;;6223798;23;20008;-83
2022/09/12 05:24:31;;;;;;;1.50;1.40;;;10.50;99.90;;;;;;6223658;23;20004;-83
2022/09/12 05:26:57;;;;;;;1.55;1.45;;;10.60;99.90;;;;;;6224101;23;20008;-83
2022/09/12 05:29:24;;;;;;;1.10;1.10;;;10.60;99.90;;;;;;6224394;23;20038;-83
2022/09/12 05:31:51;;;;;;;1.50;1.40;;;10.60;99.90;;;;;;6225030;23;20004;-83
2022/09/12 05:34:18;;;;;;;1.35;1.27;;;10.70;99.90;;;;;;6198874;23;20009;-82
2022/09/12 05:36:43;;;;;;;1.63;1.25;;;10.70;99.90;;;;;;6197112;23;20004;-83
2022/09/12 05:39:09;;;;;;;1.90;1.08;;;10.80;99.90;;;;;;6225772;23;20015;-83
2022/09/12 05:41:35;;;;;;;1.25;1.15;;;10.80;99.90;;;;;;6197610;23;20001;-84
2022/09/12 05:44:03;;;;;;;1.75;1.52;;;10.90;99.90;;;;;;6224378;23;20331;-83
2022/09/12 05:46:38;;;;;;;1.42;1.33;;;10.90;99.90;;;;;;6197343;23;20087;-84
2022/09/12 05:49:06;;;;;;;1.38;1.27;;;11.00;99.90;;;;;;6197818;23;20053;-84
2022/09/12 05:51:34;;;;;;;1.30;1.20;;;11.00;99.90;;;;;;6221813;23;20000;-84
2022/09/12 05:54:02;;;;;;;1.60;1.50;;;11.10;99.90;;;;;;6221954;23;20399;-82
2022/09/12 05:56:30;;;;;;;1.50;1.40;;;11.10;99.90;;;;;;6219958;23;20337;-82
2022/09/12 05:59:02;;;;;;;1.20;1.20;;;11.10;99.90;;;;;;6218802;23;20020;-84
2022/09/12 06:01:30;;;;;;;1.50;0.90;;;11.20;99.90;;;;;;6196577;23;20440;-83
2022/09/12 06:03:59;;;;;;;1.38;1.27;;;11.30;99.90;;;;;;6197336;23;20007;-82
2022/09/12 06:06:26;;;;;;;1.67;1.58;;;11.30;99.90;;;;;;6196724;23;20008;-83
2022/09/12 06:08:55;;;;;;;2.28;1.60;;;11.40;99.90;;;;;;6223657;23;20014;-83
2022/09/12 06:11:24;;;;;;;0.70;0.70;;;11.40;99.90;;;;;;6225103;23;20001;-82
2022/09/12 06:13:51;;;;;;;1.35;1.25;;;11.50;99.90;;;;;;6223944;23;20012;-83
2022/09/12 06:16:22;;;;;;;2.78;1.48;;;11.50;99.90;;;;;;6196851;23;20008;-83
2022/09/12 06:18:49;;;;;;;1.38;1.25;;;11.60;99.90;;;;;;6223288;23;20000;-83
2022/09/12 06:21:15;;;;;;;1.30;1.25;;;11.60;99.90;;;;;;6223460;23;20001;-83
2022/09/12 06:23:41;;;;;;;2.05;1.25;;;11.70;99.90;;;;;;6223549;23;20000;-84
2022/09/12 06:26:28;;;;;;;1.20;1.10;;;11.80;99.90;;;;;;6227355;23;20004;-85
2022/09/12 06:29:04;;;;;;;1.05;1.00;;;11.80;99.90;;;;;;6224834;23;20011;-84
2022/09/12 06:31:33;;;;;;;1.58;1.10;;;11.90;99.90;;;;;;6226707;23;20004;-83
2022/09/12 06:34:01;;;;;;;0.90;0.90;;;12.00;99.90;;;;;;6201292;23;20035;-84
2022/09/12 06:36:47;;;;;;;1.10;1.00;;;12.00;99.90;;;;;;6200981;23;20008;-85
2022/09/12 06:39:17;;;;;;;3.45;1.20;;;12.10;99.90;;;;;;6200493;23;20012;-85
2022/09/12 06:41:43;;;;;;;3.53;1.58;;;12.20;99.90;;;;;;6225249;23;19993;-83
2022/09/12 06:44:18;;;;;;;1.70;1.23;;;12.30;99.90;;;;;;6228051;23;20038;-84
2022/09/12 06:46:44;;;;;;;1.58;1.48;;;12.30;99.90;;;;;;6230671;23;19997;-84
2022/09/12 06:49:13;;;;;;;2.90;1.10;;;12.40;99.90;;;;;;6208141;23;20015;-84
2022/09/12 06:51:53;;;;;;;1.13;1.13;;;12.50;99.90;;;;;;6225459;23;20000;-84
2022/09/12 06:54:30;;;;;;;1.48;1.30;;;12.60;99.90;;;;;;6197493;23;20087;-84
2022/09/12 06:56:56;;;;;;;1.70;1.27;;;12.70;99.90;;;;;;6226286;23;20024;-85
2022/09/12 06:59:21;;;;;;;1.38;1.27;;;12.80;99.90;;;;;;6226107;22;20020;-84
2022/09/12 07:01:47;;;;;;;1.10;1.00;;;12.90;99.90;;;;;;6198931;23;20009;-84
2022/09/12 07:04:13;;;;;;;1.20;1.10;;;13.00;99.90;;;;;;6199005;23;20336;-85
2022/09/12 07:06:40;;;;;;;2.58;1.42;;;13.10;99.90;;;;;;6198941;23;20023;-85
2022/09/12 07:09:09;;;;;;;3.42;1.63;;;13.20;99.90;;;;;;6203474;23;20001;-84
2022/09/12 07:11:37;;;;;;;5.22;1.67;;;13.30;99.90;;;;;;6224386;23;19997;-84
2022/09/12 07:14:05;;;;;;;1.45;1.23;;;13.50;99.90;;;;;;6228921;23;20007;-84
2022/09/12 07:16:33;;;;;;;1.40;1.30;;;13.60;99.90;;;;;;6232497;22;20008;-85
2022/09/12 07:49:57;;;;;;;1.98;1.50;;;15.90;96.40;;;;;;6182165;23;20027;-80
2022/09/12 07:52:23;;;;;;;2.95;1.40;;;16.10;96.00;;;;;;6226867;23;20001;-80
2022/09/12 07:54:49;;;;;;;2.53;1.63;;;16.20;95.20;;;;;;6227021;22;20007;-83
2022/09/12 07:57:14;;;;;;;2.75;1.45;;;16.40;94.70;;;;;;6204267;23;20013;-83
2022/09/12 07:59:41;;;;;;;1.90;1.33;;;16.60;94.30;;;;;;6205075;23;20012;-83
2022/09/12 08:02:16;;;;;;;1.63;1.52;;;16.80;93.90;;;;;;6205069;23;19985;-83
2022/09/12 08:04:41;;;;;;;1.33;1.20;;;16.90;93.40;;;;;;6228808;23;20301;-82
2022/09/12 08:07:08;;;;;;;4.25;1.55;;;17.00;93.10;;;;;;6200028;23;20050;-82
2022/09/12 08:09:34;;;;;;;1.50;1.40;;;17.20;92.50;;;;;;6193262;23;20005;-83
2022/09/12 08:12:01;;;;;;;1.65;1.10;;;17.40;91.50;;;;;;6194251;23;19997;-80
2022/09/12 08:14:26;;;;;;;2.13;1.70;;;17.60;90.90;;;;;;6203994;23;20013;-83
2022/09/12 08:16:52;;;;;;;3.60;1.42;;;17.70;88.90;;;;;;6226896;23;20339;-83
2022/09/12 08:19:18;;;;;;;1.45;1.30;;;17.70;88.60;;;;;;6227323;23;20028;-83
2022/09/12 08:21:44;;;;;;;1.65;1.08;;;17.90;88.40;;;;;;6201479;23;20008;-84
2022/09/12 08:24:11;;;;;;;1.38;1.10;;;18.10;87.40;;;;;;6227143;23;20324;-83
2022/09/12 08:26:36;;;;;;;1.40;1.00;;;18.30;86.20;;;;;;6204671;23;20332;-83
2022/09/12 08:29:03;;;;;;;1.23;1.02;;;18.50;85.10;;;;;;6206926;22;20000;-87
2022/09/12 08:31:35;;;;;;;1.98;1.77;;;18.70;84.10;;;;;;6210976;22;19989;-85
2022/09/12 08:34:01;;;;;;;;;;;18.80;83.10;;;;;;6213447;22;20017;-85
2022/09/12 08:36:28;;;;;;;1.98;1.45;;;19.00;81.60;;;;;;6211458;22;19940;-85
2022/09/12 08:38:59;;;;;;;1.38;1.27;;;19.10;81.30;;;;;;6230539;22;20009;-83
2022/09/12 08:41:33;;;;;;;2.22;1.58;;;19.10;79.80;;;;;;6231591;23;19997;-84
2022/09/12 08:44:22;;;;;;;1.70;1.35;;;19.20;79.10;;;;;;6207975;23;20041;-83
2022/09/12 08:47:12;;;;;;;1.75;1.17;;;19.10;78.70;;;;;;6217096;23;20005;-84
2022/09/12 08:49:53;;;;;;;2.05;1.38;;;19.30;78.60;;;;;;6231281;23;20044;-85
2022/09/12 08:53:01;;;;;;;1.00;1.00;;;19.40;76.70;;;;;;6211657;23;20012;-84
2022/09/12 08:55:32;;;;;;;1.63;1.52;;;19.50;76.60;;;;;;6207935;23;20009;-84
2022/09/12 08:58:11;;;;;;;1.88;1.40;;;19.60;76.00;;;;;;6205424;23;20051;-84
2022/09/12 09:00:54;;;;;;;1.30;1.20;;;19.60;74.90;;;;;;6207282;23;20005;-84
2022/09/12 09:03:38;;;;;;;1.20;1.10;;;20.00;74.60;;;;;;6207522;23;20004;-85
2022/09/12 09:06:30;;;;;;;1.00;1.00;;;20.40;73.50;;;;;;6206977;23;20001;-84
2022/09/12 09:09:10;;;;;;;1.02;0.93;;;20.70;72.00;;;;;;6206806;23;20044;-84
2022/09/12 09:12:01;;;;;;;2.20;1.50;;;21.00;71.10;;;;;;6207479;23;20020;-85
2022/09/12 09:15:10;;;;;;;1.33;1.25;;;21.20;70.10;;;;;;6210082;22;19997;-85
2022/09/12 09:17:46;;;;;;;1.55;1.38;;;21.20;68.60;;;;;;6211752;22;20102;-86
2022/09/12 09:20:40;;;;;;;2.28;1.40;;;21.10;67.70;;;;;;6212354;22;20004;-84
2022/09/12 09:23:18;;;;;;;1.30;1.10;;;21.10;68.30;;;;;;6206220;22;20057;-86
2022/09/12 09:26:08;;;;;;;1.40;1.30;;;21.30;68.40;;;;;;6207601;22;20020;-84
2022/09/12 09:28:51;;;;;;;1.00;1.00;;;21.60;67.30;;;;;;6209298;22;20051;-85
2022/09/12 09:31:22;;;;;;;1.10;1.10;;;21.70;65.30;;;;;;6206694;23;20020;-82
2022/09/12 09:33:50;;;;;;;1.95;1.25;;;21.70;66.00;;;;;;6204269;23;20089;-80
2022/09/12 09:36:39;;;;;;;3.03;1.13;;;21.90;65.90;;;;;;6204319;23;20016;-81
2022/09/12 09:39:11;;;;;;;1.13;1.13;;;22.00;64.90;;;;;;6202923;23;20036;-80
2022/09/12 09:42:07;;;;;;;0.95;0.95;;;21.80;65.10;;;;;;6203828;23;20032;-83
2022/09/12 09:44:33;;;;;;;1.35;1.15;;;21.80;65.20;;;;;;6205545;23;20004;-86
2022/09/12 09:47:00;;;;;;;3.08;1.08;;;22.00;63.80;;;;;;6211367;23;20013;-84
2022/09/12 09:49:32;;;;;;;1.20;1.05;;;22.00;64.60;;;;;;6216427;23;20075;-85
2022/09/12 09:51:59;;;;;;;1.50;1.20;;;22.10;64.70;;;;;;6237046;23;19991;-82
2022/09/12 09:54:50;;;;;;;1.20;0.98;;;22.00;63.80;;;;;;6236083;23;20076;-83
2022/09/12 09:57:35;;;;;;;1.13;1.13;;;21.90;63.10;;;;;;6210326;23;20103;-83
2022/09/12 10:00:35;;;;;;;1.00;1.00;;;22.10;63.80;;;;;;6210721;23;20003;-82
2022/09/12 10:03:13;;;;;;;2.45;1.20;;;22.20;63.00;;;;;;6235904;23;20043;-83
2022/09/12 10:05:48;;;;;;;1.42;1.35;;;22.60;63.00;;;;;;6211102;23;20068;-86
2022/09/12 10:08:29;;;;;;;1.55;1.45;;;22.60;63.20;;;;;;6238640;23;20012;-85
2022/09/12 10:10:54;;;;;;;1.45;1.35;;;22.50;64.70;;;;;;6212529;23;20009;-85
2022/09/12 10:13:42;;;;;;;1.90;1.25;;;22.40;65.50;;;;;;6237376;23;19996;-84
2022/09/12 10:16:21;;;;;;;1.40;1.30;;;22.60;64.50;;;;;;6212569;23;20022;-85
2022/09/12 10:18:48;;;;;;;1.60;1.40;;;22.50;62.70;;;;;;6214929;22;20056;-85
2022/09/12 10:21:31;;;;;;;1.77;1.67;;;22.40;62.30;;;;;;6238924;23;20032;-83
2022/09/12 10:24:17;;;;;;;1.52;1.33;;;22.40;61.70;;;;;;6237492;23;20026;-82
2022/09/12 10:26:48;;;;;;;1.55;1.45;;;22.20;63.70;;;;;;6209112;23;20001;-80
2022/09/12 10:29:23;;;;;;;1.48;1.38;;;22.30;62.50;;;;;;6234606;23;19997;-81
2022/09/12 10:31:53;;;;;;;1.30;1.20;;;22.30;62.30;;;;;;6235222;23;20080;-82
2022/09/12 10:34:43;;;;;;;1.40;1.23;;;22.30;63.30;;;;;;6234990;23;19997;-82
2022/09/12 10:37:22;;;;;;;3.22;1.63;;;22.40;63.20;;;;;;6206588;23;20017;-82
2022/09/12 10:39:56;;;;;;;1.45;1.35;;;22.30;61.40;;;;;;6208494;23;20004;-83
2022/09/12 10:42:44;;;;;;;1.90;1.67;;;22.40;60.50;;;;;;6208178;23;20007;-82
2022/09/12 10:45:31;;;;;;;1.42;1.23;;;22.40;60.70;;;;;;6208389;23;20001;-85
2022/09/12 10:48:02;;;;;;;1.08;1.08;;;22.40;61.20;;;;;;6234458;23;20000;-82
2022/09/12 10:50:34;;;;;;;1.38;1.25;;;22.40;61.80;;;;;;6208902;23;20012;-83
2022/09/12 10:53:40;;;;;;;4.60;1.60;;;22.40;62.20;;;;;;6210162;23;20068;-83
2022/09/12 10:56:06;;;;;;;3.75;1.67;;;22.50;63.10;;;;;;6208057;23;20000;-82
2022/09/12 10:59:12;;;;;;;3.28;1.40;;;22.60;62.30;;;;;;6208606;23;20316;-81
2022/09/12 11:01:47;;;;;;;1.48;1.35;;;22.50;62.50;;;;;;6210633;23;20020;-82
2022/09/12 11:04:42;;;;;;;1.33;1.15;;;22.60;62.10;;;;;;6209702;23;20008;-82
2022/09/12 11:07:38;;;;;;;2.03;1.83;;;22.50;60.70;;;;;;6211908;22;20031;-83
2022/09/12 11:10:42;;;;;;;1.40;1.30;;;22.70;60.00;;;;;;6240298;22;20085;-84
2022/09/12 11:13:16;;;;;;;1.50;1.40;;;22.90;59.90;;;;;;6209703;23;20000;-83
2022/09/12 11:15:48;;;;;;;1.63;1.48;;;23.20;59.00;;;;;;6238105;23;20404;-86
2022/09/12 11:18:13;;;;;;;1.52;1.27;;;23.00;59.10;;;;;;6215746;22;20004;-83
2022/09/12 11:21:11;;;;;;;1.15;1.02;;;23.00;60.00;;;;;;6212121;22;20004;-81
2022/09/12 11:23:41;;;;;;;1.40;1.30;;;22.90;60.00;;;;;;6196761;23;20004;-81
2022/09/12 11:26:27;;;;;;;1.58;1.48;;;23.00;59.20;;;;;;6210576;23;20004;-83
2022/09/12 11:29:09;;;;;;;2.88;1.30;;;23.00;59.80;;;;;;6210824;23;20011;-82
2022/09/12 11:31:45;;;;;;;;;;;23.10;60.20;;;;;;6211101;23;20009;-86
2022/09/12 11:34:22;;;;;;;1.23;1.23;;;23.40;59.70;;;;;;6209686;23;19888;-84
2022/09/12 11:37:04;;;;;;;1.40;1.30;;;23.40;58.70;;;;;;6210323;23;20008;-83
2022/09/12 11:39:38;;;;;;;1.45;1.00;;;23.50;58.80;;;;;;6212616;22;20009;-85
2022/09/12 11:42:11;;;;;;;1.58;1.20;;;23.70;58.20;;;;;;6241920;22;19988;-82
2022/09/12 11:44:40;;;;;;;1.10;1.10;;;23.70;58.00;;;;;;6210749;23;20000;-84
2022/09/12 11:47:13;;;;;;;1.30;1.30;;;23.80;57.90;;;;;;6209949;23;20004;-82
2022/09/12 11:49:53;;;;;;;1.58;1.30;;;23.80;56.30;;;;;;6236499;22;20009;-86
2022/09/12 11:52:23;;;;;;;1.00;1.00;;;23.50;55.70;;;;;;6235979;23;20004;-84
2022/09/12 11:55:10;;;;;;;1.83;1.00;;;23.30;56.90;;;;;;6234067;23;20015;-84
2022/09/12 11:57:53;;;;;;;2.65;1.20;;;23.40;57.20;;;;;;6235642;23;20288;-82
2022/09/12 12:00:26;;;;;;;1.23;1.13;;;23.60;56.00;;;;;;6208222;23;20020;-85
2022/09/12 12:03:16;;;;;;;1.02;1.02;;;23.70;55.30;;;;;;6208756;23;20041;-84
2022/09/12 12:06:05;;;;;;;1.10;1.10;;;23.60;55.80;;;;;;6207846;23;20288;-83
2022/09/12 12:08:38;;;;;;;1.00;1.00;;;23.60;57.00;;;;;;6209195;23;20012;-84
2022/09/12 12:11:06;;;;;;;1.10;1.10;;;23.70;56.80;;;;;;6207642;23;20022;-84
2022/09/12 12:13:32;;;;;;;1.10;1.10;;;23.90;56.50;;;;;;6209041;23;20084;-82
2022/09/12 12:16:00;;;;;;;0.98;0.98;;;24.10;55.70;;;;;;6235376;23;20027;-88
2022/09/12 12:18:27;;;;;;;2.03;1.27;;;24.30;55.30;;;;;;6209866;23;20064;-84
2022/09/12 12:20:54;;;;;;;1.20;1.20;;;24.30;55.10;;;;;;6209310;23;20066;-87
2022/09/12 12:23:23;;;;;;;1.00;1.00;;;24.10;55.40;;;;;;6236121;23;20331;-83
2022/09/12 12:25:54;;;;;;;1.42;1.33;;;24.20;55.30;;;;;;6209504;23;20095;-85
2022/09/12 12:28:41;;;;;;;1.77;1.67;;;24.30;52.80;;;;;;6209383;23;20064;-84
2022/09/12 12:31:10;;;;;;;2.50;1.25;;;24.00;53.30;;;;;;6210386;23;20015;-85
2022/09/12 12:33:36;;;;;;;1.20;1.20;;;23.90;54.50;;;;;;6209133;23;20015;-84
2022/09/12 12:36:06;;;;;;;2.38;1.08;;;23.70;54.90;;;;;;6208851;23;20009;-84
2022/09/12 12:38:37;;;;;;;0.93;0.93;;;23.70;55.70;;;;;;6209358;23;20057;-85
2022/09/12 12:41:18;;;;;;;1.45;1.13;;;23.80;55.60;;;;;;6208701;23;20055;-83
2022/09/12 12:43:43;;;;;;;1.30;1.20;;;23.70;53.90;;;;;;6208997;23;20053;-82
2022/09/12 12:46:21;;;;;;;2.08;1.25;;;23.80;54.30;;;;;;6208788;23;20004;-82
2022/09/12 12:48:49;;;;;;;1.30;1.23;;;23.90;53.40;;;;;;6236174;23;20004;-84
2022/09/12 12:51:33;;;;;;;1.10;1.10;;;23.90;54.00;;;;;;6212447;23;20016;-84
2022/09/12 12:54:01;;;;;;;0.90;0.90;;;24.10;54.00;;;;;;6208991;23;20001;-83
2022/09/12 12:56:47;;;;;;;1.10;1.00;;;24.30;53.10;;;;;;6209296;23;20004;-86
2022/09/12 12:59:22;;;;;;;0.80;0.80;;;24.50;53.00;;;;;;6234635;23;20000;-83
2022/09/12 13:01:55;;;;;;;0.82;0.82;;;24.70;52.80;;;;;;6233651;23;20011;-84
2022/09/12 13:04:26;;;;;;;1.00;1.00;;;25.10;52.60;;;;;;6202694;23;20000;-82
2022/09/12 13:07:22;;;;;;;1.23;1.08;;;25.00;51.00;;;;;;6195308;23;20107;-82
2022/09/12 13:09:51;;;;;;;2.08;0.98;;;24.80;51.80;;;;;;6235423;23;20015;-84
2022/09/12 13:12:25;;;;;;;3.67;1.15;;;25.10;52.20;;;;;;6210185;23;20016;-87
2022/09/12 13:15:28;;;;;;;1.23;1.23;;;25.10;51.70;;;;;;6240288;22;20000;-85
2022/09/12 13:18:00;;;;;;;1.73;1.05;;;24.80;52.40;;;;;;6146065;23;20013;-83
2022/09/12 13:20:42;;;;;;;;;;;24.70;52.90;;;;;;6221070;23;20000;-81
2022/09/12 13:23:24;;;;;;;1.88;1.08;;;24.70;53.00;;;;;;6235446;23;19899;-82
2022/09/12 13:25:58;;;;;;;1.08;0.98;;;24.80;53.20;;;;;;6210201;23;20011;-84
2022/09/12 13:28:25;;;;;;;1.20;1.10;;;24.80;52.30;;;;;;6210409;23;20004;-83
2022/09/12 13:30:59;;;;;;;0.77;0.75;;;24.70;51.40;;;;;;6210031;23;20034;-86
2022/09/12 13:33:36;;;;;;;1.00;0.90;;;24.70;52.90;;;;;;6236315;23;20011;-83
2022/09/12 13:36:20;;;;;;;1.70;1.20;;;24.90;52.70;;;;;;6235940;23;20005;-83
2022/09/12 13:39:03;;;;;;;5.85;1.38;;;24.80;52.30;;;;;;6212011;22;20019;-81
2022/09/12 13:42:07;;;;;;;1.25;1.23;;;24.80;51.20;;;;;;6207599;23;20114;-81
2022/09/12 13:44:54;;;;;;;2.03;1.05;;;24.90;51.90;;;;;;6212237;23;20001;-83
2022/09/12 13:47:55;;;;;;;1.20;1.10;;;25.00;50.10;;;;;;6212190;23;20000;-84
2022/09/12 13:50:30;;;;;;;1.20;1.10;;;25.00;51.00;;;;;;6212401;23;19993;-85
2022/09/12 13:53:05;;;;;;;2.17;0.90;;;24.90;50.90;;;;;;6213077;23;20020;-83
2022/09/12 13:55:38;;;;;;;1.35;1.25;;;24.90;50.00;;;;;;6240115;23;20078;-84
2022/09/12 13:58:25;;;;;;;1.27;1.15;;;24.70;50.90;;;;;;6243097;22;19993;-88
2022/09/12 14:07:24;;;;;;;1.25;1.10;;;24.30;50.70;;;;;;6178872;23;20093;-84
2022/09/12 14:09:59;;;;;;;2.15;0.90;;;24.20;51.60;;;;;;6140444;23;20425;-83